Time;durP1;ratioP1;P1;durP2;ratioP2;P2;SDS_P1;SDS_P2;PMS_P1;PMS_P2;Temp;Humidity;BMP_temperature;BMP_pressure;BME280_temperature;BME280_humidity;BME280_pressure;Samples;Min_cycle;Max_cycle;Signal;HPM_P1;HPM_P2
2023/07/29 00:01:26;;;;;;;203.93;181.75;;;;;;;;;;5006905;28;20034;-54
2023/07/29 00:03:51;;;;;;;145.30;94.53;;;;;;;;;;5007616;28;20539;-53
2023/07/29 00:06:16;;;;;;;245.80;222.60;;;;;;;;;;5006092;28;20033;-55
2023/07/29 00:08:41;;;;;;;147.73;125.18;;;;;;;;;;5007164;28;20260;-53
2023/07/29 00:11:07;;;;;;;264.83;193.57;;;;;;;;;;5002806;28;20316;-53
2023/07/29 00:13:32;;;;;;;259.60;232.77;;;;;;;;;;5006280;28;20281;-53
2023/07/29 00:15:57;;;;;;;246.20;200.37;;;;;;;;;;5005899;28;20067;-54
2023/07/29 00:18:23;;;;;;;238.82;212.43;;;;;;;;;;5008921;28;20260;-53
2023/07/29 00:20:48;;;;;;;215.77;187.00;;;;;;;;;;5007411;28;20041;-54
2023/07/29 00:23:14;;;;;;;120.85;58.55;;;;;;;;;;5006588;28;20021;-53
2023/07/29 00:25:39;;;;;;;231.90;193.88;;;;;;;;;;5006421;28;20037;-54
2023/07/29 00:28:04;;;;;;;256.52;200.20;;;;;;;;;;5007401;28;20112;-52
2023/07/29 00:30:29;;;;;;;66.73;34.73;;;;;;;;;;5007932;28;20080;-53
2023/07/29 00:32:55;;;;;;;143.52;70.53;;;;;;;;;;5006138;28;20266;-52
2023/07/29 00:35:20;;;;;;;85.23;41.23;;;;;;;;;;5006023;28;20447;-53
2023/07/29 00:37:45;;;;;;;215.60;180.48;;;;;;;;;;5007260;28;20376;-53
2023/07/29 00:40:20;;;;;;;256.63;178.73;;;;;;;;;;5005481;28;20032;-52
2023/07/29 00:42:46;;;;;;;54.92;8.88;;;;;;;;;;5006267;28;20446;-52
2023/07/29 00:45:11;;;;;;;161.35;125.68;;;;;;;;;;5006201;28;20128;-54
2023/07/29 00:47:37;;;;;;;81.25;28.38;;;;;;;;;;5007971;28;20048;-53
2023/07/29 00:50:03;;;;;;;170.98;79.07;;;;;;;;;;5006534;28;20021;-53
2023/07/29 00:52:28;;;;;;;96.03;34.90;;;;;;;;;;5005388;28;20077;-55
2023/07/29 00:54:53;;;;;;;84.40;19.17;;;;;;;;;;5007580;28;20017;-54
2023/07/29 00:57:19;;;;;;;60.50;6.68;;;;;;;;;;5004695;28;20782;-53
2023/07/29 00:59:44;;;;;;;88.90;72.97;;;;;;;;;;5008542;28;20108;-54
2023/07/29 01:02:09;;;;;;;140.70;46.03;;;;;;;;;;5007473;28;20505;-53
2023/07/29 01:04:34;;;;;;;56.85;10.75;;;;;;;;;;5007599;28;20025;-53
2023/07/29 01:07:03;;;;;;;118.72;40.83;;;;;;;;;;5006189;28;20494;-55
2023/07/29 01:09:28;;;;;;;123.00;55.28;;;;;;;;;;5009327;28;20545;-55
2023/07/29 01:12:16;;;;;;;144.00;98.23;;;;;;;;;;5006392;28;20041;-53
2023/07/29 01:14:46;;;;;;;76.13;36.22;;;;;;;;;;5007262;28;20310;-53
2023/07/29 01:17:22;;;;;;;87.85;8.13;;;;;;;;;;5005150;28;20026;-53
2023/07/29 01:19:53;;;;;;;87.32;11.48;;;;;;;;;;5006785;28;20025;-54
2023/07/29 01:22:19;;;;;;;70.45;13.75;;;;;;;;;;5005826;28;20393;-53
2023/07/29 01:24:44;;;;;;;66.25;20.90;;;;;;;;;;5006180;28;20022;-53
2023/07/29 01:27:09;;;;;;;215.20;145.07;;;;;;;;;;5003727;28;20026;-53
2023/07/29 01:29:34;;;;;;;140.52;123.80;;;;;;;;;;5006385;28;20367;-53
2023/07/29 01:32:03;;;;;;;68.60;6.90;;;;;;;;;;5004243;28;20034;-54
2023/07/29 01:34:35;;;;;;;88.43;42.97;;;;;;;;;;5005723;28;20501;-52
2023/07/29 01:37:02;;;;;;;115.55;60.20;;;;;;;;;;5003669;28;20167;-55
2023/07/29 01:39:28;;;;;;;146.80;106.18;;;;;;;;;;5005872;28;20025;-53
2023/07/29 01:41:54;;;;;;;72.38;11.82;;;;;;;;;;5004326;28;20038;-53
2023/07/29 01:44:19;;;;;;;62.83;6.53;;;;;;;;;;5005016;28;20075;-53
2023/07/29 01:46:45;;;;;;;114.93;64.68;;;;;;;;;;5004266;28;20673;-54
2023/07/29 01:49:10;;;;;;;99.50;9.20;;;;;;;;;;5011701;28;20034;-54
2023/07/29 01:51:36;;;;;;;71.63;31.02;;;;;;;;;;5007177;28;20030;-52
2023/07/29 01:54:01;;;;;;;143.47;85.17;;;;;;;;;;5004306;28;20026;-52
2023/07/29 01:56:26;;;;;;;138.73;108.85;;;;;;;;;;5006451;28;20268;-53
2023/07/29 01:58:51;;;;;;;93.67;33.33;;;;;;;;;;5007061;28;20459;-53
2023/07/29 02:01:17;;;;;;;110.07;9.40;;;;;;;;;;5004723;28;20292;-53
2023/07/29 02:03:43;;;;;;;108.53;96.05;;;;;;;;;;5005492;28;20411;-54
2023/07/29 02:06:08;;;;;;;86.20;10.13;;;;;;;;;;5003943;28;20522;-52
2023/07/29 02:08:33;;;;;;;92.70;34.60;;;;;;;;;;5013967;28;20290;-53
2023/07/29 02:10:59;;;;;;;67.72;17.27;;;;;;;;;;5010108;28;20113;-53
2023/07/29 02:13:24;;;;;;;78.90;9.47;;;;;;;;;;5008338;28;20099;-54
2023/07/29 02:15:49;;;;;;;72.30;28.65;;;;;;;;;;5008246;28;20379;-54
2023/07/29 02:18:14;;;;;;;98.93;11.87;;;;;;;;;;5009085;28;20026;-54
2023/07/29 02:20:40;;;;;;;80.47;31.03;;;;;;;;;;5009053;28;20367;-53
2023/07/29 02:23:06;;;;;;;112.40;9.52;;;;;;;;;;5008360;28;20287;-54
2023/07/29 02:25:31;;;;;;;61.30;6.35;;;;;;;;;;5009419;28;20507;-54
2023/07/29 02:27:56;;;;;;;64.50;6.43;;;;;;;;;;5008798;28;20698;-53
2023/07/29 02:30:21;;;;;;;67.03;12.80;;;;;;;;;;5007762;28;20140;-53
2023/07/29 02:32:47;;;;;;;49.90;6.18;;;;;;;;;;5009838;28;20311;-54
2023/07/29 02:35:12;;;;;;;120.53;10.63;;;;;;;;;;5007685;28;20426;-54
2023/07/29 02:37:37;;;;;;;60.85;6.80;;;;;;;;;;5010228;28;20024;-54
2023/07/29 02:40:03;;;;;;;63.40;7.10;;;;;;;;;;5009316;28;20495;-52
2023/07/29 02:42:28;;;;;;;80.68;14.07;;;;;;;;;;5008284;28;20670;-53
2023/07/29 02:44:54;;;;;;;72.30;7.73;;;;;;;;;;5010138;28;20491;-54
2023/07/29 02:47:19;;;;;;;127.90;25.60;;;;;;;;;;5008422;28;20261;-54
2023/07/29 02:49:45;;;;;;;63.53;7.03;;;;;;;;;;5009932;28;20091;-53
2023/07/29 02:52:10;;;;;;;122.15;14.30;;;;;;;;;;5007374;28;20037;-54
2023/07/29 02:54:35;;;;;;;66.17;7.90;;;;;;;;;;5012859;28;20064;-52
2023/07/29 02:57:00;;;;;;;62.37;6.73;;;;;;;;;;5008735;28;20292;-53
2023/07/29 02:59:26;;;;;;;82.90;8.80;;;;;;;;;;5010170;28;20778;-54
2023/07/29 03:01:53;;;;;;;62.80;6.83;;;;;;;;;;5008762;28;20040;-53
2023/07/29 03:04:18;;;;;;;101.78;9.45;;;;;;;;;;5006826;28;20259;-53
2023/07/29 03:06:43;;;;;;;76.82;8.00;;;;;;;;;;5008730;28;20399;-53
2023/07/29 03:09:09;;;;;;;110.60;10.93;;;;;;;;;;5007590;28;20025;-53
2023/07/29 03:11:34;;;;;;;62.25;8.13;;;;;;;;;;5009108;28;20273;-52
2023/07/29 03:14:00;;;;;;;64.57;7.65;;;;;;;;;;5008916;28;20022;-51
2023/07/29 03:16:25;;;;;;;63.90;7.13;;;;;;;;;;5006333;28;20056;-51
2023/07/29 03:18:51;;;;;;;60.45;7.10;;;;;;;;;;5008113;28;20102;-52
2023/07/29 03:21:16;;;;;;;135.57;11.68;;;;;;;;;;5007030;28;20029;-52
2023/07/29 03:23:41;;;;;;;55.15;7.20;;;;;;;;;;5008194;28;20018;-52
2023/07/29 03:26:10;;;;;;;61.90;6.65;;;;;;;;;;5008207;28;20049;-52
2023/07/29 03:28:36;;;;;;;76.15;7.18;;;;;;;;;;5008091;28;20018;-52
2023/07/29 03:31:02;;;;;;;64.43;6.70;;;;;;;;;;5007347;28;20033;-52
2023/07/29 03:33:27;;;;;;;71.53;7.65;;;;;;;;;;5006997;28;20439;-52
2023/07/29 03:35:53;;;;;;;75.83;7.10;;;;;;;;;;5007355;28;20033;-52
2023/07/29 03:38:18;;;;;;;120.57;10.73;;;;;;;;;;5008739;28;20318;-53
2023/07/29 03:40:44;;;;;;;56.63;6.07;;;;;;;;;;5008501;28;20128;-52
2023/07/29 03:43:09;;;;;;;105.25;9.20;;;;;;;;;;5006781;28;20387;-52
2023/07/29 03:45:34;;;;;;;57.63;6.07;;;;;;;;;;5005862;28;20472;-52
2023/07/29 03:48:00;;;;;;;66.05;7.43;;;;;;;;;;5009489;28;20349;-52
2023/07/29 03:50:25;;;;;;;73.87;7.03;;;;;;;;;;5007719;28;21353;-52
2023/07/29 03:52:50;;;;;;;72.53;6.68;;;;;;;;;;5009750;28;20808;-52
2023/07/29 03:55:16;;;;;;;136.65;11.32;;;;;;;;;;5005056;28;20145;-52
2023/07/29 03:57:41;;;;;;;63.13;6.72;;;;;;;;;;5006067;28;20334;-52
2023/07/29 04:00:06;;;;;;;71.07;6.67;;;;;;;;;;5006209;28;20039;-52
2023/07/29 04:02:32;;;;;;;72.43;6.85;;;;;;;;;;5007435;28;20786;-53
2023/07/29 04:04:57;;;;;;;80.90;7.70;;;;;;;;;;5007723;28;20034;-52
2023/07/29 04:07:22;;;;;;;130.17;10.93;;;;;;;;;;5004280;28;20282;-52
2023/07/29 04:09:48;;;;;;;61.67;6.25;;;;;;;;;;5007463;28;20365;-54
2023/07/29 04:12:14;;;;;;;139.52;12.27;;;;;;;;;;5005321;28;20348;-54
2023/07/29 04:14:39;;;;;;;63.95;6.82;;;;;;;;;;5004991;28;20079;-54
2023/07/29 04:17:05;;;;;;;65.10;6.18;;;;;;;;;;5007502;28;20034;-53
2023/07/29 04:19:30;;;;;;;81.80;7.25;;;;;;;;;;5006443;28;20018;-53
2023/07/29 04:21:55;;;;;;;57.63;5.97;;;;;;;;;;5007818;28;20466;-55
2023/07/29 04:24:23;;;;;;;117.77;10.23;;;;;;;;;;5005767;28;20405;-55
2023/07/29 04:26:48;;;;;;;103.55;42.50;;;;;;;;;;5006264;28;20276;-53
2023/07/29 04:29:13;;;;;;;129.90;34.83;;;;;;;;;;5007778;28;20025;-54
2023/07/29 04:31:39;;;;;;;62.75;6.07;;;;;;;;;;5006757;28;20048;-54
2023/07/29 04:34:04;;;;;;;70.60;7.05;;;;;;;;;;5009196;28;20100;-55
2023/07/29 04:36:30;;;;;;;101.63;47.35;;;;;;;;;;5006826;28;20444;-53
2023/07/29 04:38:55;;;;;;;83.57;7.00;;;;;;;;;;5006382;28;20037;-52
2023/07/29 04:41:20;;;;;;;103.03;9.23;;;;;;;;;;5005872;28;20287;-55
2023/07/29 04:43:45;;;;;;;121.60;66.25;;;;;;;;;;5007458;28;20036;-54
2023/07/29 04:46:10;;;;;;;208.73;187.83;;;;;;;;;;5004573;28;20040;-53
2023/07/29 04:48:36;;;;;;;73.10;8.20;;;;;;;;;;5006129;28;20259;-54
2023/07/29 04:51:01;;;;;;;332.07;251.97;;;;;;;;;;5005265;28;20033;-53
2023/07/29 04:53:26;;;;;;;168.23;36.30;;;;;;;;;;5004098;28;20278;-54
2023/07/29 04:55:51;;;;;;;249.13;222.90;;;;;;;;;;5006891;28;20276;-55
2023/07/29 04:58:17;;;;;;;246.67;166.97;;;;;;;;;;5006458;28;20359;-54
2023/07/29 05:00:42;;;;;;;228.50;204.20;;;;;;;;;;5006542;28;20733;-53
2023/07/29 05:03:07;;;;;;;160.33;121.40;;;;;;;;;;5004875;28;20371;-53
2023/07/29 05:05:32;;;;;;;157.10;114.07;;;;;;;;;;5003225;28;20307;-53
2023/07/29 05:07:58;;;;;;;201.47;145.97;;;;;;;;;;5005977;28;20013;-53
2023/07/29 05:10:23;;;;;;;248.33;185.80;;;;;;;;;;5005189;28;20777;-53
2023/07/29 05:12:48;;;;;;;159.90;134.73;;;;;;;;;;5007638;28;20287;-52
2023/07/29 05:15:13;;;;;;;215.75;146.75;;;;;;;;;;5004622;28;20051;-53
2023/07/29 05:17:39;;;;;;;179.68;154.35;;;;;;;;;;5007278;28;20064;-53
2023/07/29 05:20:04;;;;;;;217.02;172.95;;;;;;;;;;5011237;28;20080;-53
2023/07/29 05:22:29;;;;;;;288.33;203.40;;;;;;;;;;5004508;28;20030;-52
2023/07/29 05:24:55;;;;;;;196.43;172.93;;;;;;;;;;5006975;28;20104;-54
2023/07/29 05:27:20;;;;;;;274.20;206.05;;;;;;;;;;5005686;28;20033;-54
2023/07/29 05:29:45;;;;;;;93.60;38.80;;;;;;;;;;5005336;28;20053;-53
2023/07/29 05:32:11;;;;;;;181.23;137.07;;;;;;;;;;5005448;28;20287;-53
2023/07/29 05:34:36;;;;;;;136.00;83.97;;;;;;;;;;5004808;28;20646;-55
2023/07/29 05:37:01;;;;;;;164.77;124.57;;;;;;;;;;5007103;28;20033;-53
2023/07/29 05:39:26;;;;;;;228.07;124.40;;;;;;;;;;5004803;28;20344;-52
2023/07/29 05:41:51;;;;;;;179.37;146.13;;;;;;;;;;5004385;28;20690;-54
2023/07/29 05:44:17;;;;;;;123.07;56.87;;;;;;;;;;5006132;28;20029;-53
2023/07/29 05:46:42;;;;;;;227.83;176.83;;;;;;;;;;5008806;28;20877;-53
2023/07/29 05:49:07;;;;;;;198.97;178.20;;;;;;;;;;5008816;28;20553;-52
2023/07/29 05:51:32;;;;;;;140.20;112.75;;;;;;;;;;5010247;28;22490;-52
2023/07/29 05:53:58;;;;;;;132.98;104.50;;;;;;;;;;5008154;28;20201;-52
2023/07/29 05:56:23;;;;;;;280.63;210.73;;;;;;;;;;5008648;28;20038;-53
2023/07/29 05:58:48;;;;;;;197.48;161.43;;;;;;;;;;5011739;28;20279;-54
2023/07/29 06:01:14;;;;;;;104.72;66.38;;;;;;;;;;5009040;28;20576;-54
2023/07/29 06:03:39;;;;;;;180.83;151.13;;;;;;;;;;5009671;28;20022;-55
2023/07/29 06:06:04;;;;;;;172.83;138.73;;;;;;;;;;5009099;28;20849;-54
2023/07/29 06:08:29;;;;;;;195.15;126.95;;;;;;;;;;5008976;28;20316;-54
2023/07/29 06:10:55;;;;;;;210.15;187.25;;;;;;;;;;5011157;28;20317;-53
2023/07/29 06:13:20;;;;;;;261.42;169.80;;;;;;;;;;5009799;28;20033;-53
2023/07/29 06:15:45;;;;;;;137.20;75.27;;;;;;;;;;5012160;28;20475;-55
2023/07/29 06:18:10;;;;;;;191.20;144.98;;;;;;;;;;5009832;28;20493;-54
2023/07/29 06:20:36;;;;;;;149.17;116.43;;;;;;;;;;5007931;28;20669;-53
2023/07/29 06:23:02;;;;;;;168.98;117.05;;;;;;;;;;5009778;28;20667;-53
2023/07/29 06:25:27;;;;;;;215.00;109.68;;;;;;;;;;5008063;28;20280;-53
2023/07/29 06:27:52;;;;;;;143.07;101.88;;;;;;;;;;5009132;28;20021;-53
2023/07/29 06:30:17;;;;;;;110.63;65.83;;;;;;;;;;5007130;28;20079;-53
2023/07/29 06:32:42;;;;;;;193.87;158.73;;;;;;;;;;5009853;28;20260;-51
2023/07/29 06:35:08;;;;;;;163.40;121.93;;;;;;;;;;5008876;28;20276;-50
2023/07/29 06:37:33;;;;;;;239.90;161.77;;;;;;;;;;5007468;28;20034;-53
2023/07/29 06:39:58;;;;;;;163.47;138.57;;;;;;;;;;5008108;28;20480;-50
2023/07/29 06:42:23;;;;;;;314.37;217.67;;;;;;;;;;5008031;28;20388;-52
2023/07/29 06:44:49;;;;;;;181.40;147.40;;;;;;;;;;5007419;28;20040;-53
2023/07/29 06:47:14;;;;;;;155.98;121.55;;;;;;;;;;5009758;28;20272;-53
2023/07/29 06:49:39;;;;;;;54.40;16.17;;;;;;;;;;5007018;28;20024;-52
2023/07/29 06:52:05;;;;;;;160.63;99.83;;;;;;;;;;5009369;28;20036;-52
2023/07/29 06:54:30;;;;;;;290.85;211.90;;;;;;;;;;5005810;28;20268;-52
2023/07/29 06:56:55;;;;;;;174.97;138.57;;;;;;;;;;5010529;28;20117;-52
2023/07/29 06:59:20;;;;;;;196.50;56.90;;;;;;;;;;5009141;28;20891;-54
2023/07/29 07:01:46;;;;;;;62.33;6.13;;;;;;;;;;5007871;28;20034;-52
2023/07/29 07:04:11;;;;;;;59.53;5.50;;;;;;;;;;5007905;28;20439;-52
2023/07/29 07:06:36;;;;;;;142.13;11.23;;;;;;;;;;5006047;28;20149;-53
2023/07/29 07:09:02;;;;;;;55.45;5.40;;;;;;;;;;5007103;28;20096;-52
2023/07/29 07:11:27;;;;;;;122.70;10.85;;;;;;;;;;5008107;28;20443;-52
2023/07/29 07:13:52;;;;;;;68.18;6.65;;;;;;;;;;5007004;28;20469;-52
2023/07/29 07:16:18;;;;;;;52.93;5.20;;;;;;;;;;5009027;28;20038;-53
2023/07/29 07:18:43;;;;;;;58.30;5.30;;;;;;;;;;5007982;28;20032;-53
2023/07/29 07:21:08;;;;;;;63.40;6.03;;;;;;;;;;5007492;28;20100;-53
2023/07/29 07:23:34;;;;;;;126.13;9.83;;;;;;;;;;5006775;28;20475;-53
2023/07/29 07:25:59;;;;;;;54.10;5.18;;;;;;;;;;5008110;28;20356;-54
2023/07/29 07:28:24;;;;;;;129.55;10.27;;;;;;;;;;5008610;28;20448;-52
2023/07/29 07:30:49;;;;;;;60.13;5.57;;;;;;;;;;5009046;28;20033;-54
2023/07/29 07:33:15;;;;;;;77.03;6.80;;;;;;;;;;5005877;28;21063;-54
2023/07/29 07:35:42;;;;;;;74.70;6.37;;;;;;;;;;5005519;28;20280;-52
2023/07/29 07:38:09;;;;;;;51.75;5.22;;;;;;;;;;5006858;28;20755;-53
2023/07/29 07:40:34;;;;;;;122.57;10.00;;;;;;;;;;5004965;28;20333;-50
2023/07/29 07:43:00;;;;;;;69.50;5.93;;;;;;;;;;5007149;28;20141;-50
2023/07/29 07:45:25;;;;;;;118.93;9.65;;;;;;;;;;5004538;28;20426;-51
2023/07/29 07:47:51;;;;;;;54.70;5.20;;;;;;;;;;5011315;28;20026;-51
2023/07/29 07:50:16;;;;;;;70.38;6.22;;;;;;;;;;5007005;28;20311;-51
2023/07/29 07:52:42;;;;;;;86.03;7.05;;;;;;;;;;5005866;28;20057;-51
2023/07/29 07:55:08;;;;;;;52.83;5.07;;;;;;;;;;5008222;28;20484;-51
2023/07/29 07:57:33;;;;;;;114.57;9.00;;;;;;;;;;5006837;28;20046;-50
2023/07/29 07:59:58;;;;;;;63.03;5.43;;;;;;;;;;5008975;28;20029;-51
2023/07/29 08:02:23;;;;;;;73.97;6.50;;;;;;;;;;5006298;28;20296;-53
2023/07/29 08:04:49;;;;;;;88.70;9.15;;;;;;;;;;5007038;28;20411;-53
2023/07/29 08:07:14;;;;;;;54.53;4.90;;;;;;;;;;5005909;28;20032;-55
2023/07/29 08:09:39;;;;;;;111.03;9.43;;;;;;;;;;5006233;28;20039;-55
2023/07/29 08:12:05;;;;;;;71.60;6.47;;;;;;;;;;5007024;28;20044;-53
2023/07/29 08:14:31;;;;;;;133.23;18.60;;;;;;;;;;5006733;28;20151;-53
2023/07/29 08:16:56;;;;;;;53.03;5.90;;;;;;;;;;5007253;28;20034;-53
2023/07/29 08:19:21;;;;;;;99.93;17.67;;;;;;;;;;5007046;28;20026;-55
2023/07/29 08:21:46;;;;;;;56.87;5.50;;;;;;;;;;5004705;28;20042;-53
2023/07/29 08:24:11;;;;;;;89.13;7.53;;;;;;;;;;5006012;28;20284;-52
2023/07/29 08:26:37;;;;;;;136.23;11.32;;;;;;;;;;5006521;28;20041;-52
2023/07/29 08:29:02;;;;;;;74.00;5.13;;;;;;;;;;5007671;28;20033;-52
2023/07/29 08:31:27;;;;;;;82.47;6.18;;;;;;;;;;5004213;28;20371;-52
2023/07/29 08:33:52;;;;;;;62.20;4.47;;;;;;;;;;5008251;28;20025;-53
2023/07/29 08:36:18;;;;;;;48.50;3.50;;;;;;;;;;5006237;28;20296;-52
2023/07/29 08:38:43;;;;;;;54.23;3.53;;;;;;;;;;5004789;28;20044;-52
2023/07/29 08:41:18;;;;;;;69.28;4.68;;;;;;;;;;5003446;28;20655;-52
2023/07/29 08:43:52;;;;;;;99.70;7.20;;;;;;;;;;5003581;28;20403;-52
2023/07/29 08:46:18;;;;;;;60.33;4.43;;;;;;;;;;5006630;28;20555;-52
2023/07/29 08:48:44;;;;;;;94.78;6.32;;;;;;;;;;5005320;28;20037;-52
2023/07/29 08:51:10;;;;;;;64.93;4.57;;;;;;;;;;5005610;28;20029;-55
2023/07/29 08:53:35;;;;;;;129.05;8.77;;;;;;;;;;5005184;28;20274;-54
2023/07/29 08:56:01;;;;;;;52.10;3.70;;;;;;;;;;5007518;28;20392;-52
2023/07/29 08:58:26;;;;;;;48.70;3.88;;;;;;;;;;5004730;28;20625;-53
2023/07/29 09:00:52;;;;;;;75.53;4.88;;;;;;;;;;5005808;28;20037;-53
2023/07/29 09:03:17;;;;;;;70.85;4.75;;;;;;;;;;5004716;28;20061;-55
2023/07/29 09:05:42;;;;;;;111.50;8.00;;;;;;;;;;5004073;28;20033;-52
2023/07/29 09:08:08;;;;;;;57.10;3.92;;;;;;;;;;5007152;28;20030;-54
2023/07/29 09:10:40;;;;;;;91.38;6.38;;;;;;;;;;5006559;28;20289;-55
2023/07/29 09:13:05;;;;;;;64.72;4.32;;;;;;;;;;5006204;28;20207;-52
2023/07/29 09:15:32;;;;;;;94.85;6.07;;;;;;;;;;5004300;28;20125;-52
2023/07/29 09:17:57;;;;;;;68.53;4.50;;;;;;;;;;5008014;28;20060;-52
2023/07/29 09:20:26;;;;;;;41.10;3.03;;;;;;;;;;5005175;28;20108;-52
2023/07/29 09:22:53;;;;;;;68.40;4.55;;;;;;;;;;5007080;28;20034;-53
2023/07/29 09:25:28;;;;;;;52.67;3.65;;;;;;;;;;5007414;28;20132;-53
2023/07/29 09:27:58;;;;;;;66.32;4.38;;;;;;;;;;5006105;28;20480;-54
2023/07/29 09:30:23;;;;;;;57.08;4.18;;;;;;;;;;5005184;28;20030;-52
2023/07/29 09:32:52;;;;;;;64.30;4.32;;;;;;;;;;5004639;28;20026;-53
2023/07/29 09:35:17;;;;;;;57.15;4.00;;;;;;;;;;5005108;28;20033;-54
2023/07/29 09:37:43;;;;;;;108.68;7.60;;;;;;;;;;5003753;28;20022;-53
2023/07/29 09:40:13;;;;;;;61.35;3.95;;;;;;;;;;5004878;28;20101;-53
2023/07/29 09:42:39;;;;;;;106.13;6.85;;;;;;;;;;5003375;28;20061;-55
2023/07/29 09:45:04;;;;;;;55.28;3.72;;;;;;;;;;5004832;28;20281;-53
2023/07/29 09:47:29;;;;;;;47.90;3.72;;;;;;;;;;5005290;28;20033;-54
2023/07/29 09:49:54;;;;;;;59.15;4.40;;;;;;;;;;5037696;28;20045;-52
2023/07/29 09:52:21;;;;;;;55.60;3.87;;;;;;;;;;5004853;28;20029;-53
2023/07/29 09:54:47;;;;;;;79.38;5.30;;;;;;;;;;5004806;28;20800;-55
2023/07/29 09:57:16;;;;;;;64.00;4.32;;;;;;;;;;5006560;28;20034;-54
2023/07/29 09:59:42;;;;;;;94.78;6.38;;;;;;;;;;5006526;28;20063;-54
2023/07/29 10:02:12;;;;;;;54.80;3.88;;;;;;;;;;5006347;28;20160;-53
2023/07/29 10:04:37;;;;;;;107.45;7.60;;;;;;;;;;5003934;28;20021;-52
2023/07/29 10:07:03;;;;;;;51.87;3.77;;;;;;;;;;5007867;28;20030;-53
2023/07/29 10:09:29;;;;;;;68.10;4.38;;;;;;;;;;5008352;28;20040;-52
2023/07/29 10:11:55;;;;;;;51.38;5.03;;;;;;;;;;5003631;28;20124;-54
2023/07/29 10:14:20;;;;;;;52.60;6.18;;;;;;;;;;5006211;28;20388;-52
2023/07/29 10:16:46;;;;;;;118.53;10.35;;;;;;;;;;5002774;28;20149;-53
2023/07/29 10:19:12;;;;;;;51.70;5.22;;;;;;;;;;5007688;28;20092;-54
2023/07/29 10:21:38;;;;;;;97.32;9.10;;;;;;;;;;5003578;28;20590;-56
2023/07/29 10:24:05;;;;;;;71.97;6.88;;;;;;;;;;5004971;28;20026;-54
2023/07/29 10:26:31;;;;;;;60.10;5.93;;;;;;;;;;5004480;28;20037;-54
2023/07/29 10:29:00;;;;;;;55.38;6.30;;;;;;;;;;5006008;28;20021;-52
2023/07/29 10:31:27;;;;;;;228.50;204.90;;;;;;;;;;5009327;28;20057;-51
2023/07/29 10:33:52;;;;;;;208.40;187.15;;;;;;;;;;5007748;28;20723;-52
2023/07/29 10:36:18;;;;;;;294.23;264.13;;;;;;;;;;5007663;28;20084;-52
2023/07/29 10:38:44;;;;;;;323.50;174.30;;;;;;;;;;5006950;28;20032;-51
2023/07/29 10:41:09;;;;;;;269.15;214.98;;;;;;;;;;5010480;28;20077;-53
2023/07/29 10:43:36;;;;;;;333.73;291.10;;;;;;;;;;5006985;28;20029;-52
2023/07/29 10:46:18;;;;;;;239.52;215.98;;;;;;;;;;5008653;28;20211;-52
2023/07/29 10:48:51;;;;;;;169.25;39.10;;;;;;;;;;5008192;28;20018;-52
2023/07/29 10:51:22;;;;;;;285.23;216.98;;;;;;;;;;5009646;28;20041;-54
2023/07/29 10:53:47;;;;;;;338.52;173.75;;;;;;;;;;5007902;28;20060;-52
2023/07/29 10:56:12;;;;;;;316.52;226.07;;;;;;;;;;5014313;28;20175;-52
2023/07/29 10:58:38;;;;;;;245.73;140.07;;;;;;;;;;5008377;28;20506;-54
2023/07/29 11:01:12;;;;;;;164.67;84.83;;;;;;;;;;5008024;28;20900;-53
2023/07/29 11:03:38;;;;;;;273.92;189.15;;;;;;;;;;5005990;28;20211;-51
2023/07/29 11:06:04;;;;;;;163.65;146.00;;;;;;;;;;5008981;28;20034;-52
2023/07/29 11:08:30;;;;;;;121.68;103.90;;;;;;;;;;5009457;28;20557;-51
2023/07/29 11:10:58;;;;;;;263.67;235.52;;;;;;;;;;5005673;28;20565;-52
2023/07/29 11:13:25;;;;;;;220.18;191.68;;;;;;;;;;5008411;28;20013;-52
2023/07/29 11:15:51;;;;;;;185.50;94.32;;;;;;;;;;5005434;28;20037;-52
2023/07/29 11:18:17;;;;;;;192.18;159.95;;;;;;;;;;5010119;28;20037;-52
2023/07/29 11:20:42;;;;;;;237.15;132.10;;;;;;;;;;5006495;28;20042;-52
2023/07/29 11:23:07;;;;;;;226.63;195.03;;;;;;;;;;5007629;28;20064;-54
2023/07/29 11:25:35;;;;;;;170.20;144.85;;;;;;;;;;5010097;28;20283;-52
2023/07/29 11:28:01;;;;;;;115.28;79.07;;;;;;;;;;5008953;28;20025;-52
2023/07/29 11:30:27;;;;;;;190.13;167.70;;;;;;;;;;5009322;28;20037;-52
2023/07/29 11:32:53;;;;;;;147.55;83.70;;;;;;;;;;5007465;28;20034;-54
2023/07/29 11:35:18;;;;;;;357.58;204.88;;;;;;;;;;5009319;28;20026;-52
2023/07/29 11:37:45;;;;;;;216.50;118.07;;;;;;;;;;5007196;28;20085;-52
2023/07/29 11:40:13;;;;;;;221.50;146.68;;;;;;;;;;5007202;28;20084;-53
2023/07/29 11:42:39;;;;;;;270.73;181.80;;;;;;;;;;5005609;28;20080;-52
2023/07/29 11:45:06;;;;;;;200.40;151.65;;;;;;;;;;5007059;28;20578;-52
2023/07/29 11:47:35;;;;;;;186.98;166.05;;;;;;;;;;5007400;28;20507;-53
2023/07/29 11:50:00;;;;;;;251.77;159.05;;;;;;;;;;5006632;28;20045;-52
2023/07/29 11:52:26;;;;;;;170.82;90.70;;;;;;;;;;5005367;28;20053;-52
2023/07/29 11:54:52;;;;;;;239.65;179.18;;;;;;;;;;5004423;28;20037;-52
2023/07/29 11:57:20;;;;;;;154.13;109.35;;;;;;;;;;5008615;28;20092;-53
2023/07/29 11:59:46;;;;;;;249.98;138.85;;;;;;;;;;5004811;28;20053;-52
2023/07/29 12:02:13;;;;;;;116.35;91.00;;;;;;;;;;5007851;28;20041;-54
2023/07/29 12:04:39;;;;;;;193.32;146.68;;;;;;;;;;5006614;28;20075;-52
2023/07/29 12:07:06;;;;;;;112.50;86.85;;;;;;;;;;5007244;28;20107;-52
2023/07/29 12:09:31;;;;;;;117.18;95.68;;;;;;;;;;5007988;28;20017;-52
2023/07/29 12:11:57;;;;;;;128.48;76.07;;;;;;;;;;5005287;28;20549;-53
2023/07/29 12:14:25;;;;;;;187.18;152.00;;;;;;;;;;5006317;28;20021;-53
2023/07/29 12:16:51;;;;;;;192.82;104.55;;;;;;;;;;5003867;28;20037;-54
2023/07/29 12:19:17;;;;;;;134.13;70.88;;;;;;;;;;5007525;28;20033;-54
2023/07/29 12:21:43;;;;;;;169.02;97.53;;;;;;;;;;5005544;28;20041;-52
2023/07/29 12:24:08;;;;;;;182.85;125.43;;;;;;;;;;5006407;28;20034;-52
2023/07/29 12:26:35;;;;;;;206.13;179.83;;;;;;;;;;5006832;28;20062;-52
2023/07/29 12:29:10;;;;;;;144.65;109.78;;;;;;;;;;5006555;28;20511;-52
2023/07/29 12:31:37;;;;;;;198.82;177.73;;;;;;;;;;5005516;28;20106;-54
2023/07/29 12:34:02;;;;;;;164.40;127.82;;;;;;;;;;5003396;28;20510;-52
2023/07/29 12:36:41;;;;;;;194.53;146.63;;;;;;;;;;5005573;28;20041;-55
2023/07/29 12:39:06;;;;;;;244.95;105.18;;;;;;;;;;5012401;28;20133;-53
2023/07/29 12:41:31;;;;;;;133.60;104.43;;;;;;;;;;5006116;28;20037;-53
2023/07/29 12:43:56;;;;;;;221.13;113.83;;;;;;;;;;5004546;28;20065;-53
2023/07/29 12:46:22;;;;;;;246.37;93.33;;;;;;;;;;5007148;28;20064;-53
2023/07/29 12:48:47;;;;;;;173.23;106.77;;;;;;;;;;5004610;28;20630;-52
2023/07/29 12:51:12;;;;;;;190.77;167.75;;;;;;;;;;5007959;28;20284;-52
2023/07/29 12:53:37;;;;;;;166.77;122.87;;;;;;;;;;5005988;28;20566;-53
2023/07/29 12:56:03;;;;;;;240.47;189.23;;;;;;;;;;5004471;28;20061;-53
2023/07/29 12:58:28;;;;;;;249.50;96.57;;;;;;;;;;5006596;28;20033;-53
2023/07/29 13:00:54;;;;;;;262.73;117.40;;;;;;;;;;5004315;28;20522;-52
2023/07/29 13:03:19;;;;;;;219.15;123.57;;;;;;;;;;5006999;28;20570;-52
2023/07/29 13:05:44;;;;;;;324.13;181.10;;;;;;;;;;5003402;28;20037;-54
2023/07/29 13:08:10;;;;;;;196.60;157.00;;;;;;;;;;5008467;28;20344;-53
2023/07/29 13:10:35;;;;;;;155.77;109.32;;;;;;;;;;5006586;28;20276;-53
2023/07/29 13:13:00;;;;;;;351.45;239.63;;;;;;;;;;5005340;28;20053;-54
2023/07/29 13:15:26;;;;;;;244.90;130.70;;;;;;;;;;5007447;28;20491;-54
2023/07/29 13:17:51;;;;;;;360.27;102.17;;;;;;;;;;5004107;28;20017;-53
2023/07/29 13:20:16;;;;;;;382.87;131.93;;;;;;;;;;5008486;28;20026;-54
2023/07/29 13:22:41;;;;;;;234.67;105.97;;;;;;;;;;5005480;28;20036;-52
2023/07/29 13:25:07;;;;;;;154.43;73.57;;;;;;;;;;5007385;28;20061;-52
2023/07/29 13:27:32;;;;;;;112.65;92.57;;;;;;;;;;5007024;28;20284;-54
2023/07/29 13:29:57;;;;;;;226.77;128.25;;;;;;;;;;5004316;28;20025;-54
2023/07/29 13:32:22;;;;;;;131.80;85.97;;;;;;;;;;5005912;28;20488;-52
2023/07/29 13:34:48;;;;;;;218.63;138.93;;;;;;;;;;5004865;28;20632;-52
2023/07/29 13:37:13;;;;;;;202.68;153.18;;;;;;;;;;5008193;28;20284;-52
2023/07/29 13:39:38;;;;;;;141.67;116.47;;;;;;;;;;5006745;28;20087;-57
2023/07/29 13:42:03;;;;;;;232.23;176.00;;;;;;;;;;5004176;28;20343;-52
2023/07/29 13:44:29;;;;;;;304.48;215.82;;;;;;;;;;5007191;28;20388;-54
2023/07/29 13:46:54;;;;;;;154.67;60.67;;;;;;;;;;5006184;28;20041;-53
2023/07/29 13:49:19;;;;;;;154.75;83.68;;;;;;;;;;5006832;28;20021;-52
2023/07/29 13:51:45;;;;;;;210.55;153.50;;;;;;;;;;5003896;28;20030;-52
2023/07/29 13:54:10;;;;;;;152.13;124.22;;;;;;;;;;5005221;28;20053;-53
2023/07/29 13:56:35;;;;;;;146.20;123.90;;;;;;;;;;5004168;28;20034;-52
2023/07/29 13:59:01;;;;;;;238.37;142.27;;;;;;;;;;5004223;28;20077;-52
2023/07/29 14:01:26;;;;;;;130.70;96.33;;;;;;;;;;5006445;28;20110;-53